createdAt,value
2019-03-23T00:01:44.942Z,29.73
2019-03-23T00:04:16.685Z,33.27
2019-03-23T00:06:48.389Z,28.47
2019-03-23T00:09:20.066Z,31.93
2019-03-23T00:11:51.584Z,29.73
2019-03-23T00:14:23.347Z,30.35
2019-03-23T00:16:54.863Z,30.87
2019-03-23T00:19:26.516Z,29.35
2019-03-23T00:21:58.194Z,31.47
2019-03-23T00:24:29.862Z,28.10
2019-03-23T00:27:01.652Z,30.63
2019-03-23T00:29:34.777Z,32.60
2019-03-23T00:32:06.598Z,30.88
2019-03-23T00:34:38.255Z,29.87
2019-03-23T00:37:09.847Z,30.70
2019-03-23T00:39:41.365Z,30.80
2019-03-23T00:42:12.880Z,27.33
2019-03-23T00:44:44.396Z,28.53
2019-03-23T00:47:16.984Z,26.73
2019-03-23T00:49:48.547Z,24.73
2019-03-23T00:52:20.117Z,29.73
2019-03-23T00:54:51.639Z,30.67
2019-03-23T00:57:23.164Z,28.27
2019-03-23T00:59:54.687Z,25.90
2019-03-23T01:02:26.203Z,30.40
2019-03-23T01:04:57.781Z,32.73
2019-03-23T01:07:29.304Z,30.57
2019-03-23T01:10:00.807Z,29.57
2019-03-23T01:12:32.351Z,30.90
2019-03-23T01:15:06.176Z,30.57
2019-03-23T01:17:37.770Z,29.70
2019-03-23T01:20:11.587Z,27.33
2019-03-23T01:22:43.136Z,29.10
2019-03-23T01:25:14.690Z,27.03
2019-03-23T01:27:46.242Z,29.67
2019-03-23T01:30:18.369Z,26.53
2019-03-23T01:32:49.905Z,28.93
2019-03-23T01:35:21.427Z,21.90
2019-03-23T01:37:53.004Z,24.53
2019-03-23T01:40:24.502Z,25.77
2019-03-23T01:42:56.018Z,25.47
2019-03-23T01:45:27.534Z,26.03
2019-03-23T01:47:59.105Z,22.67
2019-03-23T01:50:30.605Z,24.33
2019-03-23T01:53:03.168Z,23.63
2019-03-23T01:55:34.668Z,27.13
2019-03-23T01:58:06.294Z,27.73
2019-03-23T02:00:37.806Z,26.70
2019-03-23T02:03:09.464Z,25.50
2019-03-23T02:05:40.962Z,27.53
2019-03-23T02:08:12.481Z,23.90
2019-03-23T02:10:44.000Z,26.77
2019-03-23T02:13:15.489Z,25.40
2019-03-23T02:15:47.009Z,23.93
2019-03-23T02:18:18.670Z,24.17
2019-03-23T02:20:50.236Z,25.83
2019-03-23T02:23:21.732Z,22.87
2019-03-23T02:25:53.231Z,25.80
2019-03-23T02:28:24.796Z,24.73
2019-03-23T02:30:56.314Z,24.90
2019-03-23T02:33:27.851Z,26.27
2019-03-23T02:35:59.414Z,22.03
2019-03-23T02:38:30.930Z,24.97
2019-03-23T02:41:02.511Z,19.77
2019-03-23T02:43:34.151Z,23.33
2019-03-23T02:46:05.717Z,20.90
2019-03-23T02:48:37.229Z,23.70
2019-03-23T02:51:08.752Z,25.33
2019-03-23T02:53:40.354Z,18.03
2019-03-23T02:56:11.841Z,21.37
2019-03-23T02:58:43.399Z,22.53
2019-03-23T03:01:14.981Z,21.60
2019-03-23T03:03:46.649Z,24.73
2019-03-23T03:06:18.227Z,20.67
2019-03-23T03:08:49.736Z,20.30
2019-03-23T03:11:21.263Z,22.43
2019-03-23T03:13:53.831Z,21.30
2019-03-23T03:16:25.332Z,21.53
2019-03-23T03:18:57.138Z,23.57
2019-03-23T03:21:28.657Z,22.50
2019-03-23T03:24:00.222Z,24.13
2019-03-23T03:26:31.796Z,21.87
2019-03-23T03:29:03.320Z,22.40
2019-03-23T03:31:34.830Z,24.57
2019-03-23T03:34:06.342Z,22.13
2019-03-23T03:36:37.865Z,26.67
2019-03-23T03:39:10.457Z,22.80
2019-03-23T03:41:41.968Z,27.33
2019-03-23T03:44:13.551Z,22.87
2019-03-23T03:46:45.072Z,24.67
2019-03-23T03:49:16.669Z,26.20
2019-03-23T03:51:48.157Z,25.13
2019-03-23T03:54:19.722Z,23.67
2019-03-23T03:56:51.221Z,24.77
2019-03-23T03:59:22.813Z,22.53
2019-03-23T04:01:54.303Z,23.07
2019-03-23T04:04:25.831Z,24.53
2019-03-23T04:06:57.320Z,27.33
2019-03-23T04:09:28.869Z,24.13
2019-03-23T04:12:00.463Z,25.07
2019-03-23T04:14:31.983Z,24.30
2019-03-23T04:17:03.469Z,22.30
2019-03-23T04:19:35.055Z,22.20
2019-03-23T04:22:06.569Z,21.97
2019-03-23T04:24:38.069Z,23.37
2019-03-23T04:27:09.664Z,22.33
2019-03-23T04:29:41.167Z,21.67
2019-03-23T04:32:12.716Z,20.93
2019-03-23T04:34:44.238Z,24.93
2019-03-23T04:37:15.729Z,23.53
2019-03-23T04:39:47.342Z,21.80
2019-03-23T04:42:18.929Z,22.23
2019-03-23T04:44:50.426Z,26.40
2019-03-23T04:47:21.931Z,22.20
2019-03-23T04:49:54.488Z,24.23
2019-03-23T04:52:26.005Z,22.60
2019-03-23T04:54:57.537Z,23.70
2019-03-23T04:57:29.053Z,21.37
2019-03-23T05:00:00.594Z,19.93
2019-03-23T05:02:32.162Z,21.50
2019-03-23T05:05:04.448Z,27.23
2019-03-23T05:07:35.950Z,27.63
2019-03-23T05:10:08.484Z,19.67
2019-03-23T05:12:39.999Z,20.97
2019-03-23T05:15:11.598Z,18.60
2019-03-23T05:17:44.248Z,22.80
2019-03-23T05:20:32.479Z,19.83
2019-03-23T05:23:04.048Z,25.83
2019-03-23T05:25:35.590Z,20.47
2019-03-23T05:28:07.104Z,23.27
2019-03-23T05:30:38.621Z,23.00
2019-03-23T05:33:11.208Z,21.23
2019-03-23T05:35:42.704Z,19.03
2019-03-23T05:38:14.224Z,21.50
2019-03-23T05:40:45.806Z,22.83
2019-03-23T05:43:17.373Z,19.43
2019-03-23T05:45:48.884Z,27.17
2019-03-23T05:48:20.473Z,19.50
2019-03-23T05:50:51.977Z,20.33
2019-03-23T05:53:23.477Z,26.10
2019-03-23T05:55:54.990Z,25.10
2019-03-23T05:58:26.506Z,21.83
2019-03-23T06:00:58.018Z,18.60
2019-03-23T06:03:29.628Z,21.42
2019-03-23T06:06:01.182Z,22.07
2019-03-23T06:08:33.763Z,20.97
2019-03-23T06:11:05.294Z,20.63
2019-03-23T06:13:36.820Z,23.10
2019-03-23T06:16:08.343Z,23.37
2019-03-23T06:18:39.919Z,20.23
2019-03-23T06:21:12.527Z,21.63
2019-03-23T06:23:44.061Z,20.50
2019-03-23T06:26:15.634Z,27.02
2019-03-23T06:28:47.172Z,22.37
2019-03-23T06:31:18.782Z,24.73
2019-03-23T06:33:50.431Z,19.75
2019-03-23T06:36:22.021Z,25.68
2019-03-23T06:38:53.612Z,20.52
2019-03-23T06:41:25.166Z,26.73
2019-03-23T06:43:57.739Z,26.30
2019-03-23T06:46:30.238Z,27.75
2019-03-23T06:49:01.771Z,27.17
2019-03-23T06:51:33.376Z,23.95
2019-03-23T06:54:04.899Z,23.65
2019-03-23T06:56:36.416Z,28.50
2019-03-23T06:59:08.016Z,23.50
2019-03-23T07:01:39.538Z,26.80
2019-03-23T07:04:11.058Z,26.87
2019-03-23T07:06:42.655Z,26.73
2019-03-23T07:09:16.424Z,24.72
2019-03-23T07:11:47.640Z,29.35
2019-03-23T07:14:19.153Z,28.10
2019-03-23T07:16:50.657Z,28.60
2019-03-23T07:19:22.265Z,22.22
2019-03-23T07:21:54.042Z,24.52
2019-03-23T07:24:25.550Z,23.60
2019-03-23T07:26:57.060Z,27.30
2019-03-23T07:29:28.605Z,21.95
2019-03-23T07:32:05.609Z,26.40
2019-03-23T07:34:33.449Z,33.23
2019-03-23T07:37:04.970Z,25.27
2019-03-23T07:39:36.500Z,30.37
2019-03-23T07:42:08.117Z,29.65
2019-03-23T07:44:39.600Z,29.37
2019-03-23T07:47:11.130Z,31.23
2019-03-23T07:49:42.636Z,28.70
2019-03-23T07:52:14.213Z,29.80
2019-03-23T07:54:45.807Z,29.45
2019-03-23T07:57:17.325Z,31.33
2019-03-23T07:59:48.861Z,31.25
2019-03-23T08:02:20.389Z,33.85
2019-03-23T08:04:51.894Z,30.37
2019-03-23T08:07:23.417Z,32.93
2019-03-23T08:09:54.954Z,33.53
2019-03-23T08:12:26.470Z,29.37
2019-03-23T08:14:58.060Z,34.90
2019-03-23T08:17:29.584Z,33.05
2019-03-23T08:20:01.164Z,32.03
2019-03-23T08:22:33.748Z,37.98
2019-03-23T08:25:07.268Z,35.92
2019-03-23T08:27:38.851Z,33.13
2019-03-23T08:30:10.794Z,36.53
2019-03-23T08:32:42.390Z,32.70
2019-03-23T08:35:13.913Z,36.80
2019-03-23T08:37:45.475Z,35.88
2019-03-23T08:40:16.990Z,35.70
2019-03-23T08:42:48.611Z,36.48
2019-03-23T08:45:20.139Z,32.58
2019-03-23T08:47:51.698Z,32.95
2019-03-23T08:50:23.358Z,34.83
2019-03-23T08:52:54.879Z,29.02
2019-03-23T08:55:26.533Z,36.08
2019-03-23T08:57:58.165Z,33.95
2019-03-23T09:00:29.773Z,32.65
2019-03-23T09:03:03.619Z,35.70
2019-03-23T09:05:35.640Z,33.25
2019-03-23T09:08:07.228Z,32.48
2019-03-23T09:10:38.824Z,36.58
2019-03-23T09:13:10.431Z,32.40
2019-03-23T09:15:42.103Z,35.65
2019-03-23T09:18:13.658Z,34.85
2019-03-23T09:20:45.388Z,32.75
2019-03-23T09:23:16.919Z,32.35
2019-03-23T09:25:48.416Z,33.42
2019-03-23T09:28:20.005Z,37.00
2019-03-23T09:30:51.589Z,33.98
2019-03-23T09:33:23.195Z,34.80
2019-03-23T09:35:54.770Z,33.65
2019-03-23T09:38:26.323Z,36.45
2019-03-23T09:40:57.847Z,34.53
2019-03-23T09:43:29.365Z,32.90
2019-03-23T09:46:01.073Z,33.15
2019-03-23T09:48:32.577Z,35.78
2019-03-23T09:51:04.172Z,32.17
2019-03-23T09:53:35.743Z,33.18
2019-03-23T09:56:07.269Z,28.95
2019-03-23T09:58:38.785Z,32.98
2019-03-23T10:01:10.267Z,34.00
2019-03-23T10:03:42.925Z,31.62
2019-03-23T10:06:16.688Z,30.90
2019-03-23T10:08:48.218Z,29.55
2019-03-23T10:11:19.742Z,31.55
2019-03-23T10:13:51.265Z,30.85
2019-03-23T10:16:22.859Z,28.05
2019-03-23T10:18:54.461Z,32.13
2019-03-23T10:21:26.949Z,29.75
2019-03-23T10:23:58.559Z,32.28
2019-03-23T10:26:30.143Z,29.00
2019-03-23T10:29:01.667Z,29.72
2019-03-23T10:31:33.252Z,31.12
2019-03-23T10:34:04.768Z,31.33
2019-03-23T10:36:36.275Z,30.82
2019-03-23T10:39:07.843Z,29.15
2019-03-23T10:41:39.426Z,27.87
2019-03-23T10:44:10.949Z,28.38
2019-03-23T10:46:42.471Z,29.10
2019-03-23T10:49:13.993Z,28.27
2019-03-23T10:51:45.600Z,26.50
2019-03-23T10:54:17.138Z,28.30
2019-03-23T10:56:48.677Z,28.17
2019-03-23T10:59:20.198Z,27.22
2019-03-23T11:01:51.719Z,27.85
2019-03-23T11:04:23.320Z,27.90
2019-03-23T11:06:54.905Z,27.40
2019-03-23T11:09:26.490Z,25.17
2019-03-23T11:11:58.010Z,26.42
2019-03-23T11:14:29.528Z,30.60
2019-03-23T11:17:01.066Z,28.30
2019-03-23T11:19:32.605Z,24.18
2019-03-23T11:22:04.237Z,23.27
2019-03-23T11:24:35.755Z,25.85
2019-03-23T11:27:07.366Z,23.20
2019-03-23T11:29:38.897Z,26.05
2019-03-23T11:32:10.419Z,23.83
2019-03-23T11:34:42.055Z,23.95
2019-03-23T11:37:13.634Z,25.88
2019-03-23T11:39:45.211Z,24.92
2019-03-23T11:42:16.738Z,21.80
2019-03-23T11:44:48.318Z,24.32
2019-03-23T11:47:19.861Z,26.42
2019-03-23T11:49:51.389Z,24.30
2019-03-23T11:52:23.878Z,25.92
2019-03-23T11:54:55.472Z,23.35
2019-03-23T11:57:27.076Z,25.60
2019-03-23T11:59:58.673Z,25.40
2019-03-23T12:02:30.251Z,22.77
2019-03-23T12:05:01.763Z,25.52
2019-03-23T12:07:33.343Z,27.17
2019-03-23T12:10:09.152Z,28.12
2019-03-23T12:12:41.814Z,29.23
2019-03-23T12:15:13.559Z,24.95
2019-03-23T12:17:45.098Z,24.92
2019-03-23T12:20:16.700Z,26.23
2019-03-23T12:22:48.293Z,25.48
2019-03-23T12:25:19.903Z,26.05
2019-03-23T12:27:51.424Z,25.10
2019-03-23T12:30:23.090Z,24.37
2019-03-23T12:32:54.617Z,26.97
2019-03-23T12:35:26.153Z,25.97
2019-03-23T12:37:57.677Z,24.63
2019-03-23T12:40:29.180Z,26.42
2019-03-23T12:43:00.699Z,25.68
2019-03-23T12:45:32.221Z,25.40
2019-03-23T12:48:03.758Z,27.52
2019-03-23T12:50:35.280Z,21.73
2019-03-23T12:53:06.980Z,19.60
2019-03-23T12:55:38.452Z,20.20
2019-03-23T12:58:09.969Z,20.57
2019-03-23T13:00:41.590Z,23.50
2019-03-23T13:03:13.190Z,22.02
2019-03-23T13:05:44.709Z,20.65
2019-03-23T13:08:16.286Z,21.60
2019-03-23T13:10:47.826Z,21.97
2019-03-23T13:13:19.385Z,20.80
2019-03-23T13:15:50.995Z,21.52
2019-03-23T13:18:27.044Z,22.62
2019-03-23T13:20:55.891Z,23.55
2019-03-23T13:23:27.391Z,22.48
2019-03-23T13:25:58.981Z,21.50
2019-03-23T13:28:30.484Z,23.60
2019-03-23T13:31:02.007Z,24.47
2019-03-23T13:33:33.669Z,23.98
2019-03-23T13:36:05.853Z,23.90
2019-03-23T13:38:37.430Z,23.18
2019-03-23T13:41:08.954Z,24.82
2019-03-23T13:43:40.480Z,21.90
2019-03-23T13:46:12.014Z,21.80
2019-03-23T13:48:43.547Z,22.22
2019-03-23T13:51:15.047Z,23.62
2019-03-23T13:53:46.601Z,21.48
2019-03-23T13:56:18.195Z,21.90
2019-03-23T13:58:49.749Z,23.98
2019-03-23T14:01:21.342Z,24.35
2019-03-23T14:03:52.933Z,23.62
2019-03-23T14:06:24.471Z,22.82
2019-03-23T14:08:56.422Z,23.77
2019-03-23T14:11:27.955Z,24.90
2019-03-23T14:14:00.538Z,24.70
2019-03-23T14:16:32.046Z,22.52
2019-03-23T14:19:03.636Z,24.65
2019-03-23T14:21:35.150Z,22.82
2019-03-23T14:24:06.720Z,18.50
2019-03-23T14:26:38.232Z,19.27
2019-03-23T14:29:09.761Z,17.90
2019-03-23T14:31:41.466Z,14.20
2019-03-23T14:34:12.969Z,12.35
2019-03-23T14:36:44.545Z,12.10
2019-03-23T14:39:16.065Z,11.38
2019-03-23T14:41:47.659Z,13.38
2019-03-23T14:44:19.339Z,12.98
2019-03-23T14:46:50.924Z,13.68
2019-03-23T14:49:22.486Z,12.98
2019-03-23T14:51:53.985Z,12.78
2019-03-23T14:54:25.503Z,10.68
2019-03-23T14:56:57.137Z,13.32
2019-03-23T14:59:28.643Z,11.88
2019-03-23T15:02:00.191Z,12.20
2019-03-23T15:04:31.670Z,11.03
2019-03-23T15:07:04.272Z,11.68
2019-03-23T15:09:35.791Z,12.55
2019-03-23T15:12:14.776Z,10.98
2019-03-23T15:14:40.547Z,9.43
2019-03-23T15:17:12.060Z,8.68
2019-03-23T15:19:43.571Z,8.40
2019-03-23T15:22:15.188Z,9.25
2019-03-23T15:24:47.781Z,7.55
2019-03-23T15:27:19.389Z,7.58
2019-03-23T15:29:51.077Z,7.37
2019-03-23T15:32:22.640Z,7.72
2019-03-23T15:34:54.156Z,6.87
2019-03-23T15:37:25.672Z,7.25
2019-03-23T15:39:57.194Z,7.22
2019-03-23T15:42:28.721Z,7.95
2019-03-23T15:45:00.334Z,8.13
2019-03-23T15:47:31.820Z,7.92
2019-03-23T15:50:04.650Z,8.93
2019-03-23T15:52:36.156Z,9.23
2019-03-23T15:55:07.717Z,10.48
2019-03-23T15:57:39.269Z,10.63
2019-03-23T16:00:12.201Z,10.40
2019-03-23T16:02:43.842Z,10.43
2019-03-23T16:05:15.437Z,10.63
2019-03-23T16:07:46.942Z,9.65
2019-03-23T16:10:18.463Z,9.08
2019-03-23T16:12:50.011Z,9.23
2019-03-23T16:15:21.617Z,12.05
2019-03-23T16:17:53.145Z,14.15
2019-03-23T16:20:24.666Z,16.77
2019-03-23T16:22:56.269Z,22.42
2019-03-23T16:25:27.795Z,32.13
2019-03-23T16:27:59.398Z,35.25
2019-03-23T16:30:32.126Z,35.28
2019-03-23T16:33:03.648Z,37.48
2019-03-23T16:35:35.243Z,34.08
2019-03-23T16:38:06.762Z,30.43
2019-03-23T16:40:38.348Z,31.65
2019-03-23T16:43:09.982Z,28.70
2019-03-23T16:45:52.990Z,31.60
2019-03-23T16:48:14.824Z,32.93
2019-03-23T16:50:46.417Z,34.25
2019-03-23T16:53:18.009Z,34.95
2019-03-23T16:55:49.534Z,36.58
2019-03-23T16:58:21.136Z,39.18
2019-03-23T17:00:52.648Z,39.98
2019-03-23T17:03:24.221Z,39.08
2019-03-23T17:05:55.739Z,41.00
2019-03-23T17:08:27.351Z,40.28
2019-03-23T17:10:58.837Z,39.75
2019-03-23T17:13:30.429Z,39.63
2019-03-23T17:16:02.021Z,39.70
2019-03-23T17:18:33.600Z,38.48
2019-03-23T17:21:05.149Z,37.28
2019-03-23T17:23:37.417Z,42.73
2019-03-23T17:26:10.558Z,36.95
2019-03-23T17:28:42.089Z,37.28
2019-03-23T17:31:13.592Z,38.78
2019-03-23T17:33:46.069Z,40.12
2019-03-23T17:36:17.611Z,38.90
2019-03-23T17:38:49.163Z,40.17
2019-03-23T17:41:23.426Z,44.60
2019-03-23T17:43:54.929Z,44.65
2019-03-23T17:46:27.816Z,45.20
2019-03-23T17:48:59.467Z,43.45
2019-03-23T17:51:31.004Z,46.13
2019-03-23T17:54:02.504Z,42.43
2019-03-23T17:56:34.014Z,44.15
2019-03-23T17:59:05.574Z,46.23
2019-03-23T18:01:37.253Z,46.63
2019-03-23T18:04:09.734Z,44.25
2019-03-23T18:06:45.472Z,39.30
2019-03-23T18:09:17.159Z,36.98
2019-03-23T18:11:52.094Z,33.15
2019-03-23T18:14:24.001Z,29.42
2019-03-23T18:16:58.804Z,30.17
2019-03-23T18:19:34.649Z,28.45
2019-03-23T18:22:07.877Z,26.80
2019-03-23T18:24:39.408Z,22.37
2019-03-23T18:27:12.561Z,24.82
2019-03-23T18:29:44.210Z,22.13
2019-03-23T18:32:15.864Z,24.70
2019-03-23T18:34:47.636Z,22.22
2019-03-23T18:37:22.593Z,22.98
2019-03-23T18:39:54.161Z,20.60
2019-03-23T18:42:25.695Z,21.35
2019-03-23T18:44:57.274Z,23.18
2019-03-23T18:47:30.179Z,22.48
2019-03-23T18:50:01.715Z,22.52
2019-03-23T18:52:33.243Z,22.05
2019-03-23T18:55:11.483Z,23.15
2019-03-23T18:57:44.314Z,24.47
2019-03-23T19:00:39.681Z,19.70
2019-03-23T19:03:12.750Z,20.62
2019-03-23T19:05:44.273Z,21.37
2019-03-23T19:08:15.798Z,22.37
2019-03-23T19:10:47.333Z,24.30
2019-03-23T19:13:18.916Z,21.90
2019-03-23T19:15:52.032Z,24.77
2019-03-23T19:18:23.560Z,19.70
2019-03-23T19:21:07.611Z,22.07
2019-03-23T19:23:38.710Z,24.72
2019-03-23T19:26:10.529Z,23.60
2019-03-23T19:29:03.454Z,23.45
2019-03-23T19:31:34.981Z,24.35
2019-03-23T19:34:06.491Z,21.82
2019-03-23T19:36:38.006Z,23.45
2019-03-23T19:39:10.693Z,23.73
2019-03-23T19:41:42.283Z,22.62
2019-03-23T19:44:17.034Z,24.02
2019-03-23T19:46:52.498Z,23.07
2019-03-23T19:49:24.119Z,21.70
2019-03-23T19:51:55.702Z,21.87
2019-03-23T19:54:27.444Z,18.32
2019-03-23T19:57:00.751Z,21.02
2019-03-23T19:59:35.581Z,20.50
2019-03-23T20:02:12.158Z,19.52
2019-03-23T20:05:00.154Z,19.30
2019-03-23T20:07:41.315Z,20.00
2019-03-23T20:10:15.480Z,20.80
2019-03-23T20:12:51.942Z,18.55
2019-03-23T20:15:22.249Z,19.40
2019-03-23T20:17:53.781Z,17.77
2019-03-23T20:20:26.922Z,18.65
2019-03-23T20:22:58.710Z,19.23
2019-03-23T20:25:30.551Z,18.05
2019-03-23T20:28:03.900Z,18.83
2019-03-23T20:30:37.034Z,15.75
2019-03-23T20:33:19.239Z,16.20
2019-03-23T20:35:47.666Z,16.93
2019-03-23T20:38:19.336Z,17.47
2019-03-23T20:40:51.669Z,16.63
2019-03-23T20:43:23.268Z,16.27
2019-03-23T20:45:54.973Z,15.98
2019-03-23T20:48:26.587Z,14.97
2019-03-23T20:50:58.112Z,19.45
2019-03-23T20:53:29.818Z,16.53
2019-03-23T20:56:01.521Z,16.25
2019-03-23T20:58:33.155Z,17.20
2019-03-23T21:01:05.100Z,16.80
2019-03-23T21:03:36.745Z,16.25
2019-03-23T21:06:08.899Z,16.60
2019-03-23T21:08:40.863Z,18.37
2019-03-23T21:11:12.414Z,15.97
2019-03-23T21:13:44.231Z,16.00
2019-03-23T21:16:15.892Z,15.70
2019-03-23T21:18:47.477Z,14.33
2019-03-23T21:21:19.172Z,13.47
2019-03-23T21:23:52.131Z,15.30
2019-03-23T21:26:23.887Z,14.23
2019-03-23T21:28:55.542Z,14.63
2019-03-23T21:31:27.059Z,14.77
2019-03-23T21:33:58.674Z,14.80
2019-03-23T21:36:31.957Z,14.63
2019-03-23T21:39:04.645Z,12.17
2019-03-23T21:41:37.630Z,12.80
2019-03-23T21:44:14.965Z,13.47
2019-03-23T21:46:46.634Z,14.00
2019-03-23T21:51:21.827Z,13.53
2019-03-23T21:53:55.849Z,12.60
2019-03-23T21:56:27.498Z,13.53
2019-03-23T21:58:59.075Z,11.77
2019-03-23T22:01:32.476Z,11.90
2019-03-23T22:04:04.052Z,10.93
2019-03-23T22:06:35.641Z,11.40
2019-03-23T22:09:07.440Z,11.90
2019-03-23T22:11:38.976Z,13.70
2019-03-23T22:16:21.558Z,11.90
2019-03-23T22:18:53.125Z,12.30
2019-03-23T22:21:27.875Z,12.40
2019-03-23T22:23:59.692Z,13.00
2019-03-23T22:26:31.205Z,13.17
2019-03-23T22:29:02.732Z,11.33
2019-03-23T22:31:34.249Z,12.37
2019-03-23T22:34:05.827Z,12.67
2019-03-23T22:36:37.406Z,12.73
2019-03-23T22:39:09.034Z,10.57
2019-03-23T22:41:40.524Z,12.87
2019-03-23T22:44:12.114Z,10.87
2019-03-23T22:46:43.641Z,12.17
2019-03-23T22:49:15.185Z,13.47
2019-03-23T22:51:46.827Z,12.57
2019-03-23T22:54:18.347Z,13.57
2019-03-23T22:56:49.979Z,13.13
2019-03-23T22:59:21.571Z,12.50
2019-03-23T23:01:53.158Z,14.00
2019-03-23T23:04:25.835Z,13.30
2019-03-23T23:06:57.358Z,12.00
2019-03-23T23:09:28.850Z,13.47
2019-03-23T23:12:00.443Z,13.37
2019-03-23T23:14:32.031Z,12.27
2019-03-23T23:17:03.624Z,11.60
2019-03-23T23:19:35.152Z,13.47
2019-03-23T23:22:06.728Z,14.17
2019-03-23T23:24:38.248Z,12.50
2019-03-23T23:27:09.979Z,14.10
2019-03-23T23:29:41.571Z,14.17
2019-03-23T23:32:13.193Z,15.60
2019-03-23T23:34:44.822Z,15.27
2019-03-23T23:37:16.325Z,14.53
2019-03-23T23:39:47.841Z,13.77
2019-03-23T23:42:19.357Z,14.37
2019-03-23T23:44:50.883Z,13.00
2019-03-23T23:47:22.465Z,13.30
2019-03-23T23:49:53.978Z,12.53
2019-03-23T23:52:25.538Z,12.33
2019-03-23T23:54:57.053Z,10.60
2019-03-23T23:57:29.597Z,11.57
